EDDNETIC

Guest
Details From EDDN - Nurnberg
To ETIC - Grafenwohr Aaf
Flight Number -
Tags Routegen Generated
Created
Modified
Stats Distance 39 nm / 73 km
Max Altitude 100 ft / 30 m
Waypoints 5
Social Downloads 2
Likes 0
Share VATSIM

Download

Looking for another format? Having issues loading an existing format? Contact us
Advertisement - Login to hide

Notes

Departing runway 9 EDDN. Arriving runway 14 ETIC.

Route

EDDN +49.49_+011.21 +49.62_+011.54 +49.76_+011.87 ETIC

ID Type Via Altitude Latitude Longitude Leg Dist Tot Dist Heading (true) Name
O EDDN APT - 0 ft / 0 m 49.49693˚ 11.09598˚ - 0 nm - -
+49.49_+011.21 LATLON - 100 ft / 30 m 49.48602˚ 11.20611˚ 4 nm 4 nm 99° / 99° -
+49.62_+011.54 LATLON - 100 ft / 30 m 49.62326˚ 11.53777˚ 15 nm 19 nm 57° / 58° -
+49.76_+011.87 LATLON - 100 ft / 30 m 49.76049˚ 11.86943˚ 15 nm 34 nm 57° / 58° -
O ETIC APT - 0 ft / 0 m 49.70232˚ 11.93603˚ 4 nm 39 nm 143° / 144° GRAFENWOHR AAF

Altitude Profile

Advertisement - Login to hide

EDDN

Details ICAO EDDN (NUE)
Name Nurnberg
Region Germany - Civil
Timezone Europe/Berlin (UTC+2.0)
Stats Elevation 1,045 ft / 319 m (AMSL)
Location 49.498744° 11.077580°
Runways 1
Magnetic Variation 3.074° E

METAR

EDDN 221150Z 11004KT 050V210 CAVOK 24/06 Q1012 NOSIG

Decode

TAF

TAF EDDN 221100Z 2212/2312 07005KT CAVOK BECMG 2218/2220 VRB03KT

Decode

Departure Runways

ID Width Length Bearing (true) Bearing (mag) Surface Threshold Offset Overrun Length
10 148 ft / 45 m 8,819 ft / 2,688 m 98.60° 95.53° Asphalt 0 ft / 0 m 0 ft / 0 m
28 148 ft / 45 m 8,819 ft / 2,688 m 278.63° 275.56° Asphalt 0 ft / 0 m 0 ft / 0 m

ETIC

Details ICAO ETIC
Name GRAFENWOHR AAF
Region Germany - Military
Timezone Europe/Berlin (UTC+2.0)
Stats Elevation 1,363 ft / 415 m (AMSL)
Location 49.698687° 11.940176°
Runways 1
Magnetic Variation 3.303° E

METAR

ETIC 221156Z AUTO 00000KT 9999 CLR 25/06 A2991 RMK AO2 SLP120 T02470059 10247 20153 55005 $

Decode

TAF

TAF ETIC 220601Z 2206/2312 VRB06KT 9999 SKC QNH2991INS BECMG 2207/2208 09006KT 9999 BKN050 QNH2993INS BECMG 2212/2213 06006KT 9999 SCT050 QNH2995INS TX21/2214Z TN07/2304Z

Decode

Destination Runways

ID Width Length Bearing (true) Bearing (mag) Surface Threshold Offset Overrun Length
14 73 ft / 22 m 3,296 ft / 1,005 m 143.52° 140.22° Asphalt 0 ft / 0 m 0 ft / 0 m
32 73 ft / 22 m 3,296 ft / 1,005 m 323.52° 320.22° Asphalt 0 ft / 0 m 0 ft / 0 m

Popular Alternatives